sensor_id;sensor_type;location;lat;lon;timestamp;P1;durP1;ratioP1;P2;durP2;ratioP2
23519;SDS011;11936;50.820;4.336;2023-05-10T00:01:56;10.68;;;6.15;;
23519;SDS011;11936;50.820;4.336;2023-05-10T00:04:22;11.18;;;6.22;;
23519;SDS011;11936;50.820;4.336;2023-05-10T00:06:52;12.13;;;6.35;;
23519;SDS011;11936;50.820;4.336;2023-05-10T00:09:18;10.80;;;6.15;;
23519;SDS011;11936;50.820;4.336;2023-05-10T00:11:43;12.60;;;6.53;;
23519;SDS011;11936;50.820;4.336;2023-05-10T00:14:09;10.27;;;6.75;;
23519;SDS011;11936;50.820;4.336;2023-05-10T00:16:34;10.50;;;6.90;;
23519;SDS011;11936;50.820;4.336;2023-05-10T00:19:00;15.20;;;6.75;;
23519;SDS011;11936;50.820;4.336;2023-05-10T00:21:26;9.38;;;5.82;;
23519;SDS011;11936;50.820;4.336;2023-05-10T00:23:53;13.52;;;6.35;;
23519;SDS011;11936;50.820;4.336;2023-05-10T00:26:19;11.13;;;7.22;;
23519;SDS011;11936;50.820;4.336;2023-05-10T00:28:45;13.93;;;7.38;;
23519;SDS011;11936;50.820;4.336;2023-05-10T00:31:10;10.68;;;6.82;;
23519;SDS011;11936;50.820;4.336;2023-05-10T00:33:36;10.48;;;6.80;;
23519;SDS011;11936;50.820;4.336;2023-05-10T00:36:02;13.98;;;7.50;;
23519;SDS011;11936;50.820;4.336;2023-05-10T00:38:28;12.32;;;6.90;;
23519;SDS011;11936;50.820;4.336;2023-05-10T00:40:54;11.38;;;6.05;;
23519;SDS011;11936;50.820;4.336;2023-05-10T00:43:19;11.38;;;7.00;;
23519;SDS011;11936;50.820;4.336;2023-05-10T00:45:45;14.00;;;7.22;;
23519;SDS011;11936;50.820;4.336;2023-05-10T00:48:11;13.43;;;6.90;;
23519;SDS011;11936;50.820;4.336;2023-05-10T00:50:37;13.25;;;7.47;;
23519;SDS011;11936;50.820;4.336;2023-05-10T00:53:05;14.20;;;6.70;;
23519;SDS011;11936;50.820;4.336;2023-05-10T00:55:31;10.68;;;6.53;;
23519;SDS011;11936;50.820;4.336;2023-05-10T00:57:56;12.80;;;7.15;;
23519;SDS011;11936;50.820;4.336;2023-05-10T01:00:22;14.95;;;8.00;;
23519;SDS011;11936;50.820;4.336;2023-05-10T01:02:48;15.55;;;7.38;;
23519;SDS011;11936;50.820;4.336;2023-05-10T01:05:14;13.95;;;7.38;;
23519;SDS011;11936;50.820;4.336;2023-05-10T01:07:40;11.25;;;7.40;;
23519;SDS011;11936;50.820;4.336;2023-05-10T01:10:06;14.13;;;8.30;;
23519;SDS011;11936;50.820;4.336;2023-05-10T01:12:37;11.75;;;7.32;;
23519;SDS011;11936;50.820;4.336;2023-05-10T01:15:07;14.10;;;7.25;;
23519;SDS011;11936;50.820;4.336;2023-05-10T01:17:37;12.40;;;7.53;;
23519;SDS011;11936;50.820;4.336;2023-05-10T01:20:05;12.18;;;7.65;;
23519;SDS011;11936;50.820;4.336;2023-05-10T01:35:00;15.18;;;7.85;;
23519;SDS011;11936;50.820;4.336;2023-05-10T01:37:15;12.45;;;8.00;;
23519;SDS011;11936;50.820;4.336;2023-05-10T01:39:49;13.80;;;8.68;;
23519;SDS011;11936;50.820;4.336;2023-05-10T01:42:23;10.30;;;7.75;;
23519;SDS011;11936;50.820;4.336;2023-05-10T01:45:00;16.85;;;8.90;;
23519;SDS011;11936;50.820;4.336;2023-05-10T01:47:58;12.90;;;8.15;;
23519;SDS011;11936;50.820;4.336;2023-05-10T01:50:35;11.68;;;8.82;;
23519;SDS011;11936;50.820;4.336;2023-05-10T01:53:04;15.65;;;8.50;;
23519;SDS011;11936;50.820;4.336;2023-05-10T01:55:33;11.93;;;8.07;;
23519;SDS011;11936;50.820;4.336;2023-05-10T01:58:09;12.88;;;8.82;;
23519;SDS011;11936;50.820;4.336;2023-05-10T02:00:39;11.20;;;8.68;;
23519;SDS011;11936;50.820;4.336;2023-05-10T02:03:09;13.63;;;8.60;;
23519;SDS011;11936;50.820;4.336;2023-05-10T02:05:36;14.65;;;8.98;;
23519;SDS011;11936;50.820;4.336;2023-05-10T02:08:05;12.27;;;8.32;;
23519;SDS011;11936;50.820;4.336;2023-05-10T02:10:34;11.65;;;8.60;;
23519;SDS011;11936;50.820;4.336;2023-05-10T02:13:00;11.83;;;8.40;;
23519;SDS011;11936;50.820;4.336;2023-05-10T02:15:27;16.95;;;9.50;;
23519;SDS011;11936;50.820;4.336;2023-05-10T02:17:55;13.15;;;9.27;;
23519;SDS011;11936;50.820;4.336;2023-05-10T02:20:21;12.75;;;8.77;;
23519;SDS011;11936;50.820;4.336;2023-05-10T02:22:49;18.45;;;9.85;;
23519;SDS011;11936;50.820;4.336;2023-05-10T02:25:17;16.05;;;9.40;;
23519;SDS011;11936;50.820;4.336;2023-05-10T02:27:44;17.00;;;9.18;;
23519;SDS011;11936;50.820;4.336;2023-05-10T02:30:11;15.60;;;9.40;;
23519;SDS011;11936;50.820;4.336;2023-05-10T02:32:38;13.57;;;8.68;;
23519;SDS011;11936;50.820;4.336;2023-05-10T02:35:05;13.15;;;9.10;;
23519;SDS011;11936;50.820;4.336;2023-05-10T02:37:32;14.50;;;8.90;;
23519;SDS011;11936;50.820;4.336;2023-05-10T02:39:59;14.43;;;8.65;;
23519;SDS011;11936;50.820;4.336;2023-05-10T02:45:05;14.30;;;7.90;;
23519;SDS011;11936;50.820;4.336;2023-05-10T02:47:35;12.52;;;7.13;;
23519;SDS011;11936;50.820;4.336;2023-05-10T02:50:01;12.93;;;7.80;;
23519;SDS011;11936;50.820;4.336;2023-05-10T02:52:29;13.48;;;8.80;;
23519;SDS011;11936;50.820;4.336;2023-05-10T02:55:08;13.10;;;7.47;;
23519;SDS011;11936;50.820;4.336;2023-05-10T02:57:36;11.52;;;8.10;;
23519;SDS011;11936;50.820;4.336;2023-05-10T03:00:07;12.07;;;8.32;;
23519;SDS011;11936;50.820;4.336;2023-05-10T03:02:33;13.85;;;8.07;;
23519;SDS011;11936;50.820;4.336;2023-05-10T03:04:59;12.25;;;8.57;;
23519;SDS011;11936;50.820;4.336;2023-05-10T03:07:24;13.90;;;8.27;;
23519;SDS011;11936;50.820;4.336;2023-05-10T03:09:50;12.18;;;8.52;;
23519;SDS011;11936;50.820;4.336;2023-05-10T03:15:13;12.63;;;8.60;;
23519;SDS011;11936;50.820;4.336;2023-05-10T03:20:47;12.90;;;8.73;;
23519;SDS011;11936;50.820;4.336;2023-05-10T03:23:22;13.65;;;8.43;;
23519;SDS011;11936;50.820;4.336;2023-05-10T03:25:59;16.17;;;8.93;;
23519;SDS011;11936;50.820;4.336;2023-05-10T03:28:25;14.45;;;8.88;;
23519;SDS011;11936;50.820;4.336;2023-05-10T03:30:54;13.15;;;8.88;;
23519;SDS011;11936;50.820;4.336;2023-05-10T03:33:21;18.55;;;10.35;;
23519;SDS011;11936;50.820;4.336;2023-05-10T03:35:47;13.85;;;9.45;;
23519;SDS011;11936;50.820;4.336;2023-05-10T03:38:13;13.55;;;10.15;;
23519;SDS011;11936;50.820;4.336;2023-05-10T03:40:38;16.30;;;10.70;;
23519;SDS011;11936;50.820;4.336;2023-05-10T03:43:04;14.70;;;10.23;;
23519;SDS011;11936;50.820;4.336;2023-05-10T03:45:30;15.95;;;10.68;;
23519;SDS011;11936;50.820;4.336;2023-05-10T03:47:56;14.50;;;9.88;;
23519;SDS011;11936;50.820;4.336;2023-05-10T03:50:22;18.13;;;11.27;;
23519;SDS011;11936;50.820;4.336;2023-05-10T03:52:48;20.30;;;12.73;;
23519;SDS011;11936;50.820;4.336;2023-05-10T03:55:14;19.45;;;12.00;;
23519;SDS011;11936;50.820;4.336;2023-05-10T03:57:41;18.05;;;12.27;;
23519;SDS011;11936;50.820;4.336;2023-05-10T04:00:07;22.55;;;12.70;;
23519;SDS011;11936;50.820;4.336;2023-05-10T04:02:33;18.95;;;12.85;;
23519;SDS011;11936;50.820;4.336;2023-05-10T04:04:58;19.13;;;12.00;;
23519;SDS011;11936;50.820;4.336;2023-05-10T04:07:24;18.73;;;12.27;;
23519;SDS011;11936;50.820;4.336;2023-05-10T04:09:50;19.38;;;12.57;;
23519;SDS011;11936;50.820;4.336;2023-05-10T04:12:16;17.58;;;12.18;;
23519;SDS011;11936;50.820;4.336;2023-05-10T04:14:41;18.83;;;12.68;;
23519;SDS011;11936;50.820;4.336;2023-05-10T04:17:07;20.05;;;12.50;;
23519;SDS011;11936;50.820;4.336;2023-05-10T04:19:32;16.90;;;12.15;;
23519;SDS011;11936;50.820;4.336;2023-05-10T04:21:58;18.00;;;11.80;;
23519;SDS011;11936;50.820;4.336;2023-05-10T04:24:24;21.80;;;13.80;;
23519;SDS011;11936;50.820;4.336;2023-05-10T04:26:51;17.92;;;11.75;;
23519;SDS011;11936;50.820;4.336;2023-05-10T04:29:16;23.00;;;13.00;;
23519;SDS011;11936;50.820;4.336;2023-05-10T04:31:42;25.23;;;13.68;;
23519;SDS011;11936;50.820;4.336;2023-05-10T04:34:08;20.20;;;12.95;;
23519;SDS011;11936;50.820;4.336;2023-05-10T04:36:33;20.27;;;13.35;;
23519;SDS011;11936;50.820;4.336;2023-05-10T04:39:00;19.35;;;12.43;;
23519;SDS011;11936;50.820;4.336;2023-05-10T04:41:28;19.65;;;13.65;;
23519;SDS011;11936;50.820;4.336;2023-05-10T04:43:53;18.83;;;13.60;;
23519;SDS011;11936;50.820;4.336;2023-05-10T04:46:19;21.73;;;14.25;;
23519;SDS011;11936;50.820;4.336;2023-05-10T04:48:45;22.17;;;14.80;;
23519;SDS011;11936;50.820;4.336;2023-05-10T04:51:11;18.65;;;13.88;;
23519;SDS011;11936;50.820;4.336;2023-05-10T04:53:37;17.63;;;13.13;;
23519;SDS011;11936;50.820;4.336;2023-05-10T04:56:03;16.00;;;11.57;;
23519;SDS011;11936;50.820;4.336;2023-05-10T04:58:28;16.27;;;10.13;;
23519;SDS011;11936;50.820;4.336;2023-05-10T05:00:54;19.83;;;11.15;;
23519;SDS011;11936;50.820;4.336;2023-05-10T05:03:21;11.60;;;9.23;;
23519;SDS011;11936;50.820;4.336;2023-05-10T05:05:47;10.85;;;7.75;;
23519;SDS011;11936;50.820;4.336;2023-05-10T05:08:13;11.25;;;7.43;;
23519;SDS011;11936;50.820;4.336;2023-05-10T05:10:39;10.02;;;7.93;;
23519;SDS011;11936;50.820;4.336;2023-05-10T05:13:05;15.05;;;8.30;;
23519;SDS011;11936;50.820;4.336;2023-05-10T05:15:30;9.95;;;7.68;;
23519;SDS011;11936;50.820;4.336;2023-05-10T05:17:56;14.65;;;8.50;;
23519;SDS011;11936;50.820;4.336;2023-05-10T05:20:22;13.98;;;8.63;;
23519;SDS011;11936;50.820;4.336;2023-05-10T05:22:48;13.55;;;8.25;;
23519;SDS011;11936;50.820;4.336;2023-05-10T05:25:13;13.70;;;8.63;;
23519;SDS011;11936;50.820;4.336;2023-05-10T05:27:40;17.05;;;8.70;;
23519;SDS011;11936;50.820;4.336;2023-05-10T05:30:06;15.15;;;8.30;;
23519;SDS011;11936;50.820;4.336;2023-05-10T05:32:32;13.82;;;8.68;;
23519;SDS011;11936;50.820;4.336;2023-05-10T05:34:57;16.83;;;9.57;;
23519;SDS011;11936;50.820;4.336;2023-05-10T05:37:23;14.68;;;10.20;;
23519;SDS011;11936;50.820;4.336;2023-05-10T05:39:49;18.08;;;10.13;;
23519;SDS011;11936;50.820;4.336;2023-05-10T05:42:15;15.00;;;10.20;;
23519;SDS011;11936;50.820;4.336;2023-05-10T05:44:42;16.88;;;10.52;;
23519;SDS011;11936;50.820;4.336;2023-05-10T05:47:08;21.50;;;11.65;;
23519;SDS011;11936;50.820;4.336;2023-05-10T05:49:34;16.77;;;11.40;;
23519;SDS011;11936;50.820;4.336;2023-05-10T05:52:00;17.60;;;11.38;;
23519;SDS011;11936;50.820;4.336;2023-05-10T05:54:26;21.90;;;11.68;;
23519;SDS011;11936;50.820;4.336;2023-05-10T05:56:59;17.15;;;10.40;;
23519;SDS011;11936;50.820;4.336;2023-05-10T05:59:25;17.05;;;9.73;;
23519;SDS011;11936;50.820;4.336;2023-05-10T06:01:51;14.00;;;8.75;;
23519;SDS011;11936;50.820;4.336;2023-05-10T06:04:18;14.70;;;9.07;;
23519;SDS011;11936;50.820;4.336;2023-05-10T06:06:44;16.98;;;9.40;;
23519;SDS011;11936;50.820;4.336;2023-05-10T06:09:10;17.98;;;8.80;;
23519;SDS011;11936;50.820;4.336;2023-05-10T06:11:36;24.17;;;10.20;;
23519;SDS011;11936;50.820;4.336;2023-05-10T06:14:02;16.75;;;9.70;;
23519;SDS011;11936;50.820;4.336;2023-05-10T06:16:32;16.85;;;7.95;;
23519;SDS011;11936;50.820;4.336;2023-05-10T06:18:58;10.45;;;6.93;;
23519;SDS011;11936;50.820;4.336;2023-05-10T06:21:24;11.27;;;6.00;;
23519;SDS011;11936;50.820;4.336;2023-05-10T06:23:50;14.65;;;5.47;;
23519;SDS011;11936;50.820;4.336;2023-05-10T06:26:16;11.35;;;5.80;;
23519;SDS011;11936;50.820;4.336;2023-05-10T06:28:41;12.70;;;5.10;;
23519;SDS011;11936;50.820;4.336;2023-05-10T06:31:07;9.63;;;5.45;;
23519;SDS011;11936;50.820;4.336;2023-05-10T06:33:33;7.03;;;4.50;;
23519;SDS011;11936;50.820;4.336;2023-05-10T06:35:59;6.13;;;4.25;;
23519;SDS011;11936;50.820;4.336;2023-05-10T06:38:25;7.30;;;4.82;;
23519;SDS011;11936;50.820;4.336;2023-05-10T06:40:51;7.50;;;4.60;;
23519;SDS011;11936;50.820;4.336;2023-05-10T06:43:16;8.98;;;5.28;;
23519;SDS011;11936;50.820;4.336;2023-05-10T06:45:42;7.97;;;5.20;;
23519;SDS011;11936;50.820;4.336;2023-05-10T06:48:08;7.82;;;5.20;;
23519;SDS011;11936;50.820;4.336;2023-05-10T06:50:33;9.82;;;5.18;;
23519;SDS011;11936;50.820;4.336;2023-05-10T06:52:59;11.70;;;6.20;;
23519;SDS011;11936;50.820;4.336;2023-05-10T06:55:26;9.48;;;5.43;;
23519;SDS011;11936;50.820;4.336;2023-05-10T06:57:52;8.32;;;5.90;;
23519;SDS011;11936;50.820;4.336;2023-05-10T07:00:18;12.45;;;6.40;;
23519;SDS011;11936;50.820;4.336;2023-05-10T07:02:44;8.50;;;6.15;;
23519;SDS011;11936;50.820;4.336;2023-05-10T07:05:10;9.15;;;6.03;;
23519;SDS011;11936;50.820;4.336;2023-05-10T07:07:36;11.40;;;6.47;;
23519;SDS011;11936;50.820;4.336;2023-05-10T07:10:02;12.57;;;7.13;;
23519;SDS011;11936;50.820;4.336;2023-05-10T07:12:28;13.43;;;7.60;;
23519;SDS011;11936;50.820;4.336;2023-05-10T07:14:54;12.00;;;7.65;;
23519;SDS011;11936;50.820;4.336;2023-05-10T07:17:19;14.45;;;7.57;;
23519;SDS011;11936;50.820;4.336;2023-05-10T07:19:45;11.90;;;6.90;;
23519;SDS011;11936;50.820;4.336;2023-05-10T07:22:11;17.50;;;6.88;;
23519;SDS011;11936;50.820;4.336;2023-05-10T07:24:37;15.98;;;8.40;;
23519;SDS011;11936;50.820;4.336;2023-05-10T07:27:02;11.45;;;7.40;;
23519;SDS011;11936;50.820;4.336;2023-05-10T07:29:29;19.33;;;8.07;;
23519;SDS011;11936;50.820;4.336;2023-05-10T07:31:54;13.98;;;7.13;;
23519;SDS011;11936;50.820;4.336;2023-05-10T07:34:20;12.85;;;7.18;;
23519;SDS011;11936;50.820;4.336;2023-05-10T07:36:46;11.23;;;7.25;;
23519;SDS011;11936;50.820;4.336;2023-05-10T07:39:12;14.15;;;6.55;;
23519;SDS011;11936;50.820;4.336;2023-05-10T07:41:38;10.05;;;6.80;;
23519;SDS011;11936;50.820;4.336;2023-05-10T07:44:04;12.73;;;6.28;;
23519;SDS011;11936;50.820;4.336;2023-05-10T07:46:29;10.02;;;5.20;;
23519;SDS011;11936;50.820;4.336;2023-05-10T07:48:55;9.95;;;5.57;;
23519;SDS011;11936;50.820;4.336;2023-05-10T07:51:21;11.07;;;5.32;;
23519;SDS011;11936;50.820;4.336;2023-05-10T07:53:46;14.88;;;5.70;;
23519;SDS011;11936;50.820;4.336;2023-05-10T07:56:25;13.80;;;6.18;;
23519;SDS011;11936;50.820;4.336;2023-05-10T07:58:54;8.77;;;5.40;;
23519;SDS011;11936;50.820;4.336;2023-05-10T08:01:21;6.25;;;4.93;;
23519;SDS011;11936;50.820;4.336;2023-05-10T08:03:47;10.63;;;5.65;;
23519;SDS011;11936;50.820;4.336;2023-05-10T08:06:14;10.70;;;5.45;;
23519;SDS011;11936;50.820;4.336;2023-05-10T08:08:40;9.20;;;4.82;;
23519;SDS011;11936;50.820;4.336;2023-05-10T08:11:06;5.53;;;4.30;;
23519;SDS011;11936;50.820;4.336;2023-05-10T08:13:31;7.82;;;4.70;;
23519;SDS011;11936;50.820;4.336;2023-05-10T08:15:57;7.93;;;4.47;;
23519;SDS011;11936;50.820;4.336;2023-05-10T08:18:23;7.03;;;4.47;;
23519;SDS011;11936;50.820;4.336;2023-05-10T08:20:48;6.80;;;4.22;;
23519;SDS011;11936;50.820;4.336;2023-05-10T08:23:14;7.40;;;4.40;;
23519;SDS011;11936;50.820;4.336;2023-05-10T08:25:40;5.75;;;4.05;;
23519;SDS011;11936;50.820;4.336;2023-05-10T08:28:06;4.40;;;3.85;;
23519;SDS011;11936;50.820;4.336;2023-05-10T08:30:31;4.72;;;3.75;;
23519;SDS011;11936;50.820;4.336;2023-05-10T08:32:57;4.30;;;3.22;;
23519;SDS011;11936;50.820;4.336;2023-05-10T08:35:23;5.13;;;3.85;;
23519;SDS011;11936;50.820;4.336;2023-05-10T08:37:50;6.90;;;3.88;;
23519;SDS011;11936;50.820;4.336;2023-05-10T08:40:16;4.25;;;3.08;;
23519;SDS011;11936;50.820;4.336;2023-05-10T08:45:14;12.40;;;4.13;;
23519;SDS011;11936;50.820;4.336;2023-05-10T08:47:41;6.53;;;4.43;;
23519;SDS011;11936;50.820;4.336;2023-05-10T08:50:07;5.25;;;4.20;;
23519;SDS011;11936;50.820;4.336;2023-05-10T08:52:33;6.55;;;4.25;;
23519;SDS011;11936;50.820;4.336;2023-05-10T08:55:05;6.32;;;4.88;;
23519;SDS011;11936;50.820;4.336;2023-05-10T08:57:31;7.97;;;4.28;;
23519;SDS011;11936;50.820;4.336;2023-05-10T08:59:56;8.02;;;4.88;;
23519;SDS011;11936;50.820;4.336;2023-05-10T09:02:23;7.15;;;5.18;;
23519;SDS011;11936;50.820;4.336;2023-05-10T09:04:49;8.57;;;4.97;;
23519;SDS011;11936;50.820;4.336;2023-05-10T09:07:14;10.43;;;5.35;;
23519;SDS011;11936;50.820;4.336;2023-05-10T09:09:40;7.25;;;5.32;;
23519;SDS011;11936;50.820;4.336;2023-05-10T09:12:07;7.72;;;5.78;;
23519;SDS011;11936;50.820;4.336;2023-05-10T09:14:36;9.40;;;5.18;;
23519;SDS011;11936;50.820;4.336;2023-05-10T09:17:02;6.13;;;4.25;;
23519;SDS011;11936;50.820;4.336;2023-05-10T09:19:29;8.30;;;4.65;;
23519;SDS011;11936;50.820;4.336;2023-05-10T09:21:54;4.95;;;4.43;;
23519;SDS011;11936;50.820;4.336;2023-05-10T09:24:24;7.45;;;3.97;;
23519;SDS011;11936;50.820;4.336;2023-05-10T09:26:51;4.50;;;4.05;;
23519;SDS011;11936;50.820;4.336;2023-05-10T09:29:17;7.40;;;3.90;;
23519;SDS011;11936;50.820;4.336;2023-05-10T09:34:11;4.22;;;3.58;;
23519;SDS011;11936;50.820;4.336;2023-05-10T09:36:50;5.22;;;4.07;;
23519;SDS011;11936;50.820;4.336;2023-05-10T09:39:19;5.38;;;3.55;;
23519;SDS011;11936;50.820;4.336;2023-05-10T09:41:45;3.80;;;3.35;;
23519;SDS011;11936;50.820;4.336;2023-05-10T09:44:12;4.50;;;3.70;;
23519;SDS011;11936;50.820;4.336;2023-05-10T09:46:48;3.72;;;3.42;;
23519;SDS011;11936;50.820;4.336;2023-05-10T09:49:14;6.28;;;3.92;;
23519;SDS011;11936;50.820;4.336;2023-05-10T09:51:40;5.35;;;4.10;;
23519;SDS011;11936;50.820;4.336;2023-05-10T09:54:10;4.00;;;3.60;;
23519;SDS011;11936;50.820;4.336;2023-05-10T09:56:40;5.35;;;4.35;;
23519;SDS011;11936;50.820;4.336;2023-05-10T09:59:06;7.25;;;4.15;;
23519;SDS011;11936;50.820;4.336;2023-05-10T10:01:34;5.37;;;4.40;;
23519;SDS011;11936;50.820;4.336;2023-05-10T10:04:02;5.35;;;4.43;;
23519;SDS011;11936;50.820;4.336;2023-05-10T10:06:29;6.47;;;4.03;;
23519;SDS011;11936;50.820;4.336;2023-05-10T10:09:00;5.55;;;4.63;;
23519;SDS011;11936;50.820;4.336;2023-05-10T10:11:26;7.97;;;4.80;;
23519;SDS011;11936;50.820;4.336;2023-05-10T10:13:52;6.38;;;4.40;;
23519;SDS011;11936;50.820;4.336;2023-05-10T10:16:18;7.40;;;4.78;;
23519;SDS011;11936;50.820;4.336;2023-05-10T10:18:45;5.03;;;4.43;;
23519;SDS011;11936;50.820;4.336;2023-05-10T10:21:13;5.15;;;3.80;;
23519;SDS011;11936;50.820;4.336;2023-05-10T10:23:43;8.18;;;4.28;;
23519;SDS011;11936;50.820;4.336;2023-05-10T10:26:09;6.82;;;3.75;;
23519;SDS011;11936;50.820;4.336;2023-05-10T10:31:30;5.50;;;4.43;;
23519;SDS011;11936;50.820;4.336;2023-05-10T10:34:06;6.40;;;4.35;;
23519;SDS011;11936;50.820;4.336;2023-05-10T10:36:43;4.78;;;4.28;;
23519;SDS011;11936;50.820;4.336;2023-05-10T10:41:38;5.22;;;4.05;;
23519;SDS011;11936;50.820;4.336;2023-05-10T10:55:11;7.65;;;5.32;;
23519;SDS011;11936;50.820;4.336;2023-05-10T11:02:45;7.80;;;5.32;;
23519;SDS011;11936;50.820;4.336;2023-05-10T11:08:00;9.90;;;5.45;;
23519;SDS011;11936;50.820;4.336;2023-05-10T11:10:51;10.38;;;5.20;;
23519;SDS011;11936;50.820;4.336;2023-05-10T11:13:26;8.25;;;5.50;;
23519;SDS011;11936;50.820;4.336;2023-05-10T11:16:21;7.82;;;5.78;;
23519;SDS011;11936;50.820;4.336;2023-05-10T11:19:00;8.00;;;5.55;;
23519;SDS011;11936;50.820;4.336;2023-05-10T11:21:32;7.07;;;5.10;;
23519;SDS011;11936;50.820;4.336;2023-05-10T11:23:59;8.60;;;5.35;;
23519;SDS011;11936;50.820;4.336;2023-05-10T11:26:31;7.88;;;5.68;;
23519;SDS011;11936;50.820;4.336;2023-05-10T11:28:58;7.15;;;5.15;;
23519;SDS011;11936;50.820;4.336;2023-05-10T11:31:25;7.85;;;4.70;;
23519;SDS011;11936;50.820;4.336;2023-05-10T11:33:55;5.97;;;5.38;;
23519;SDS011;11936;50.820;4.336;2023-05-10T11:36:26;6.20;;;5.28;;
23519;SDS011;11936;50.820;4.336;2023-05-10T11:38:52;6.57;;;5.18;;
23519;SDS011;11936;50.820;4.336;2023-05-10T11:41:19;6.28;;;4.68;;
23519;SDS011;11936;50.820;4.336;2023-05-10T11:43:51;7.50;;;5.03;;
23519;SDS011;11936;50.820;4.336;2023-05-10T11:46:19;5.15;;;4.65;;
23519;SDS011;11936;50.820;4.336;2023-05-10T11:48:49;6.90;;;5.03;;
23519;SDS011;11936;50.820;4.336;2023-05-10T11:51:19;6.18;;;4.80;;
23519;SDS011;11936;50.820;4.336;2023-05-10T11:53:49;7.60;;;5.22;;
23519;SDS011;11936;50.820;4.336;2023-05-10T11:56:17;6.28;;;4.80;;
23519;SDS011;11936;50.820;4.336;2023-05-10T11:58:43;8.52;;;6.10;;
23519;SDS011;11936;50.820;4.336;2023-05-10T12:01:09;7.25;;;6.40;;
23519;SDS011;11936;50.820;4.336;2023-05-10T12:03:35;11.45;;;6.93;;
23519;SDS011;11936;50.820;4.336;2023-05-10T12:06:02;8.13;;;6.68;;
23519;SDS011;11936;50.820;4.336;2023-05-10T12:08:29;9.48;;;6.43;;
23519;SDS011;11936;50.820;4.336;2023-05-10T12:11:08;8.18;;;6.78;;
23519;SDS011;11936;50.820;4.336;2023-05-10T12:13:37;6.72;;;6.03;;
23519;SDS011;11936;50.820;4.336;2023-05-10T12:16:28;8.43;;;6.10;;
23519;SDS011;11936;50.820;4.336;2023-05-10T12:18:57;6.85;;;5.70;;
23519;SDS011;11936;50.820;4.336;2023-05-10T12:21:25;8.98;;;6.00;;
23519;SDS011;11936;50.820;4.336;2023-05-10T12:23:53;6.93;;;5.63;;
23519;SDS011;11936;50.820;4.336;2023-05-10T12:26:23;9.13;;;5.70;;
23519;SDS011;11936;50.820;4.336;2023-05-10T12:28:52;9.75;;;7.50;;
23519;SDS011;11936;50.820;4.336;2023-05-10T12:31:19;9.27;;;7.00;;
23519;SDS011;11936;50.820;4.336;2023-05-10T12:33:44;8.57;;;7.00;;
23519;SDS011;11936;50.820;4.336;2023-05-10T12:36:12;8.27;;;6.10;;
23519;SDS011;11936;50.820;4.336;2023-05-10T12:38:39;6.88;;;6.10;;
23519;SDS011;11936;50.820;4.336;2023-05-10T12:41:15;8.98;;;6.03;;
23519;SDS011;11936;50.820;4.336;2023-05-10T12:43:42;10.10;;;6.05;;
23519;SDS011;11936;50.820;4.336;2023-05-10T12:46:11;7.93;;;6.13;;
23519;SDS011;11936;50.820;4.336;2023-05-10T12:48:39;6.78;;;4.68;;
23519;SDS011;11936;50.820;4.336;2023-05-10T12:51:05;8.10;;;5.00;;
23519;SDS011;11936;50.820;4.336;2023-05-10T12:56:00;8.88;;;4.90;;
23519;SDS011;11936;50.820;4.336;2023-05-10T12:58:25;6.93;;;4.40;;
23519;SDS011;11936;50.820;4.336;2023-05-10T13:00:51;4.82;;;4.18;;
23519;SDS011;11936;50.820;4.336;2023-05-10T13:03:17;11.63;;;4.63;;
23519;SDS011;11936;50.820;4.336;2023-05-10T13:05:43;4.72;;;4.20;;
23519;SDS011;11936;50.820;4.336;2023-05-10T13:08:09;6.35;;;4.57;;
23519;SDS011;11936;50.820;4.336;2023-05-10T13:10:34;7.22;;;4.70;;
23519;SDS011;11936;50.820;4.336;2023-05-10T13:13:00;5.95;;;3.50;;
23519;SDS011;11936;50.820;4.336;2023-05-10T13:15:26;6.55;;;4.00;;
23519;SDS011;11936;50.820;4.336;2023-05-10T13:17:52;5.53;;;4.25;;
23519;SDS011;11936;50.820;4.336;2023-05-10T13:20:18;5.45;;;4.38;;
23519;SDS011;11936;50.820;4.336;2023-05-10T13:22:44;6.35;;;4.88;;
23519;SDS011;11936;50.820;4.336;2023-05-10T13:25:10;7.50;;;4.97;;
23519;SDS011;11936;50.820;4.336;2023-05-10T13:27:37;9.55;;;5.68;;
23519;SDS011;11936;50.820;4.336;2023-05-10T13:30:06;9.55;;;5.97;;
23519;SDS011;11936;50.820;4.336;2023-05-10T13:32:32;9.88;;;5.85;;
23519;SDS011;11936;50.820;4.336;2023-05-10T13:34:58;8.63;;;5.47;;
23519;SDS011;11936;50.820;4.336;2023-05-10T13:37:24;7.80;;;5.70;;
23519;SDS011;11936;50.820;4.336;2023-05-10T13:39:50;9.35;;;5.30;;
23519;SDS011;11936;50.820;4.336;2023-05-10T13:42:15;7.57;;;5.15;;
23519;SDS011;11936;50.820;4.336;2023-05-10T13:44:42;10.82;;;5.57;;
23519;SDS011;11936;50.820;4.336;2023-05-10T13:47:08;8.15;;;6.30;;
23519;SDS011;11936;50.820;4.336;2023-05-10T13:49:33;7.63;;;6.30;;
23519;SDS011;11936;50.820;4.336;2023-05-10T13:51:59;7.35;;;6.22;;
23519;SDS011;11936;50.820;4.336;2023-05-10T13:54:31;7.70;;;6.68;;
23519;SDS011;11936;50.820;4.336;2023-05-10T13:56:58;10.05;;;7.63;;
23519;SDS011;11936;50.820;4.336;2023-05-10T13:59:24;7.88;;;6.78;;
23519;SDS011;11936;50.820;4.336;2023-05-10T14:01:49;12.90;;;7.57;;
23519;SDS011;11936;50.820;4.336;2023-05-10T14:04:15;13.30;;;8.25;;
23519;SDS011;11936;50.820;4.336;2023-05-10T14:06:41;9.65;;;8.52;;
23519;SDS011;11936;50.820;4.336;2023-05-10T14:09:06;11.88;;;8.85;;
23519;SDS011;11936;50.820;4.336;2023-05-10T14:11:32;12.63;;;8.55;;
23519;SDS011;11936;50.820;4.336;2023-05-10T14:13:58;11.75;;;9.30;;
23519;SDS011;11936;50.820;4.336;2023-05-10T14:16:23;12.85;;;10.25;;
23519;SDS011;11936;50.820;4.336;2023-05-10T14:18:49;14.30;;;9.80;;
23519;SDS011;11936;50.820;4.336;2023-05-10T14:21:15;12.57;;;10.23;;
23519;SDS011;11936;50.820;4.336;2023-05-10T14:23:40;11.90;;;9.50;;
23519;SDS011;11936;50.820;4.336;2023-05-10T14:26:06;11.38;;;8.40;;
23519;SDS011;11936;50.820;4.336;2023-05-10T14:28:32;14.60;;;9.10;;
23519;SDS011;11936;50.820;4.336;2023-05-10T14:30:58;10.93;;;8.55;;
23519;SDS011;11936;50.820;4.336;2023-05-10T14:33:24;13.57;;;8.35;;
23519;SDS011;11936;50.820;4.336;2023-05-10T14:35:50;11.10;;;7.35;;
23519;SDS011;11936;50.820;4.336;2023-05-10T14:38:15;11.65;;;7.78;;
23519;SDS011;11936;50.820;4.336;2023-05-10T14:40:41;12.52;;;7.15;;
23519;SDS011;11936;50.820;4.336;2023-05-10T14:43:07;10.50;;;8.23;;
23519;SDS011;11936;50.820;4.336;2023-05-10T14:45:33;12.30;;;9.23;;
23519;SDS011;11936;50.820;4.336;2023-05-10T14:47:59;15.07;;;9.27;;
23519;SDS011;11936;50.820;4.336;2023-05-10T14:50:25;12.93;;;9.40;;
23519;SDS011;11936;50.820;4.336;2023-05-10T14:52:51;14.13;;;9.38;;
23519;SDS011;11936;50.820;4.336;2023-05-10T14:55:17;12.93;;;9.35;;
23519;SDS011;11936;50.820;4.336;2023-05-10T14:57:44;13.50;;;9.02;;
23519;SDS011;11936;50.820;4.336;2023-05-10T15:00:12;13.45;;;10.07;;
23519;SDS011;11936;50.820;4.336;2023-05-10T15:02:40;15.05;;;10.00;;
23519;SDS011;11936;50.820;4.336;2023-05-10T15:05:06;12.98;;;8.88;;
23519;SDS011;11936;50.820;4.336;2023-05-10T15:07:32;12.70;;;8.95;;
23519;SDS011;11936;50.820;4.336;2023-05-10T15:09:58;11.07;;;7.55;;
23519;SDS011;11936;50.820;4.336;2023-05-10T15:12:23;10.73;;;6.10;;
23519;SDS011;11936;50.820;4.336;2023-05-10T15:14:49;12.50;;;6.43;;
23519;SDS011;11936;50.820;4.336;2023-05-10T15:17:15;9.18;;;5.72;;
23519;SDS011;11936;50.820;4.336;2023-05-10T15:19:41;10.15;;;5.82;;
23519;SDS011;11936;50.820;4.336;2023-05-10T15:22:07;8.18;;;5.85;;
23519;SDS011;11936;50.820;4.336;2023-05-10T15:24:33;12.13;;;5.25;;
23519;SDS011;11936;50.820;4.336;2023-05-10T15:26:59;5.13;;;3.30;;
23519;SDS011;11936;50.820;4.336;2023-05-10T15:29:25;4.45;;;2.72;;
23519;SDS011;11936;50.820;4.336;2023-05-10T15:31:51;5.78;;;2.63;;